sensor_id;sensor_type;location;lat;lon;timestamp;pressure;altitude;pressure_sealevel;temperature;humidity
73103;BME280;61294;65.988;29.172;2023-08-20T00:01:14;99442.75;;;8.29;97.39
73103;BME280;61294;65.988;29.172;2023-08-20T00:03:44;99454.97;;;8.27;97.52
73103;BME280;61294;65.988;29.172;2023-08-20T00:06:11;99466.38;;;8.28;97.36
73103;BME280;61294;65.988;29.172;2023-08-20T00:08:37;99470.72;;;8.27;98.81
73103;BME280;61294;65.988;29.172;2023-08-20T00:11:03;99458.44;;;8.26;98.44
73103;BME280;61294;65.988;29.172;2023-08-20T00:13:31;99443.28;;;8.10;97.95
73103;BME280;61294;65.988;29.172;2023-08-20T00:15:57;99443.25;;;8.08;98.69
73103;BME280;61294;65.988;29.172;2023-08-20T00:18:23;99472.28;;;8.18;98.92
73103;BME280;61294;65.988;29.172;2023-08-20T00:20:49;99463.41;;;8.09;98.67
73103;BME280;61294;65.988;29.172;2023-08-20T00:23:15;99463.25;;;8.02;98.43
73103;BME280;61294;65.988;29.172;2023-08-20T00:25:41;99454.25;;;7.89;98.55
73103;BME280;61294;65.988;29.172;2023-08-20T00:28:07;99449.75;;;7.82;98.90
73103;BME280;61294;65.988;29.172;2023-08-20T00:30:33;99441.81;;;7.77;99.90
73103;BME280;61294;65.988;29.172;2023-08-20T00:32:59;99462.91;;;7.83;99.92
73103;BME280;61294;65.988;29.172;2023-08-20T00:35:25;99462.13;;;7.89;100.00
73103;BME280;61294;65.988;29.172;2023-08-20T00:37:51;99462.16;;;7.90;100.00
73103;BME280;61294;65.988;29.172;2023-08-20T00:40:17;99439.88;;;7.67;99.79
73103;BME280;61294;65.988;29.172;2023-08-20T00:42:43;99465.34;;;7.74;99.63
73103;BME280;61294;65.988;29.172;2023-08-20T00:45:09;99465.03;;;7.57;99.03
73103;BME280;61294;65.988;29.172;2023-08-20T00:47:36;99471.78;;;7.46;99.24
73103;BME280;61294;65.988;29.172;2023-08-20T00:50:02;99427.75;;;7.31;99.98
73103;BME280;61294;65.988;29.172;2023-08-20T00:52:36;99459.09;;;7.24;98.58
73103;BME280;61294;65.988;29.172;2023-08-20T00:55:08;99470.78;;;7.01;99.83
73103;BME280;61294;65.988;29.172;2023-08-20T00:57:35;99457.28;;;7.22;100.00
73103;BME280;61294;65.988;29.172;2023-08-20T01:00:01;99426.25;;;7.01;99.78
73103;BME280;61294;65.988;29.172;2023-08-20T01:02:26;99454.72;;;7.25;100.00
73103;BME280;61294;65.988;29.172;2023-08-20T01:04:52;99422.78;;;7.02;100.00
73103;BME280;61294;65.988;29.172;2023-08-20T01:07:30;99436.59;;;6.95;100.00
73103;BME280;61294;65.988;29.172;2023-08-20T01:13:04;99444.38;;;7.30;100.00
73103;BME280;61294;65.988;29.172;2023-08-20T01:15:31;99447.25;;;7.43;100.00
73103;BME280;61294;65.988;29.172;2023-08-20T01:17:57;99474.63;;;7.58;100.00
73103;BME280;61294;65.988;29.172;2023-08-20T01:20:37;99447.88;;;7.32;100.00
73103;BME280;61294;65.988;29.172;2023-08-20T01:28:53;99474.66;;;6.79;100.00
73103;BME280;61294;65.988;29.172;2023-08-20T01:31:20;99479.03;;;6.80;100.00
73103;BME280;61294;65.988;29.172;2023-08-20T01:33:45;99465.41;;;6.95;100.00
73103;BME280;61294;65.988;29.172;2023-08-20T01:36:11;99454.06;;;6.94;100.00
73103;BME280;61294;65.988;29.172;2023-08-20T01:38:38;99447.59;;;7.18;100.00
73103;BME280;61294;65.988;29.172;2023-08-20T01:41:04;99466.00;;;7.22;100.00
73103;BME280;61294;65.988;29.172;2023-08-20T01:43:30;99445.59;;;7.06;100.00
73103;BME280;61294;65.988;29.172;2023-08-20T01:45:56;99469.31;;;7.14;100.00
73103;BME280;61294;65.988;29.172;2023-08-20T01:48:22;99464.81;;;7.08;100.00
73103;BME280;61294;65.988;29.172;2023-08-20T01:50:47;99432.53;;;6.69;100.00
73103;BME280;61294;65.988;29.172;2023-08-20T01:53:13;99463.78;;;6.62;100.00
73103;BME280;61294;65.988;29.172;2023-08-20T01:55:40;99440.25;;;6.28;100.00
73103;BME280;61294;65.988;29.172;2023-08-20T01:58:05;99436.44;;;6.15;100.00
73103;BME280;61294;65.988;29.172;2023-08-20T02:00:31;99456.56;;;6.18;100.00
73103;BME280;61294;65.988;29.172;2023-08-20T02:02:59;99462.59;;;6.15;100.00
73103;BME280;61294;65.988;29.172;2023-08-20T02:05:25;99467.00;;;6.16;100.00
73103;BME280;61294;65.988;29.172;2023-08-20T02:07:51;99432.59;;;6.01;100.00
73103;BME280;61294;65.988;29.172;2023-08-20T02:10:17;99466.63;;;6.02;100.00
73103;BME280;61294;65.988;29.172;2023-08-20T02:12:43;99464.47;;;5.87;100.00
73103;BME280;61294;65.988;29.172;2023-08-20T02:15:09;99470.28;;;5.77;100.00
73103;BME280;61294;65.988;29.172;2023-08-20T02:17:36;99456.28;;;5.75;100.00
73103;BME280;61294;65.988;29.172;2023-08-20T02:20:03;99442.09;;;5.67;100.00
73103;BME280;61294;65.988;29.172;2023-08-20T02:22:35;99464.38;;;5.84;100.00
73103;BME280;61294;65.988;29.172;2023-08-20T02:25:01;99460.56;;;5.72;100.00
73103;BME280;61294;65.988;29.172;2023-08-20T02:27:27;99420.72;;;5.50;100.00
73103;BME280;61294;65.988;29.172;2023-08-20T02:29:53;99430.88;;;5.71;100.00
73103;BME280;61294;65.988;29.172;2023-08-20T02:32:19;99460.00;;;6.15;100.00
73103;BME280;61294;65.988;29.172;2023-08-20T02:34:49;99434.50;;;6.08;100.00
73103;BME280;61294;65.988;29.172;2023-08-20T02:37:15;99460.97;;;6.19;100.00
73103;BME280;61294;65.988;29.172;2023-08-20T02:39:41;99432.84;;;6.10;100.00
73103;BME280;61294;65.988;29.172;2023-08-20T02:42:07;99423.06;;;6.03;100.00
73103;BME280;61294;65.988;29.172;2023-08-20T02:44:33;99461.13;;;6.25;100.00
73103;BME280;61294;65.988;29.172;2023-08-20T02:46:59;99414.47;;;6.07;100.00
73103;BME280;61294;65.988;29.172;2023-08-20T02:49:24;99455.03;;;6.26;100.00
73103;BME280;61294;65.988;29.172;2023-08-20T02:51:50;99452.06;;;6.12;100.00
73103;BME280;61294;65.988;29.172;2023-08-20T02:54:16;99428.47;;;5.77;100.00
73103;BME280;61294;65.988;29.172;2023-08-20T02:56:42;99413.97;;;5.58;100.00
73103;BME280;61294;65.988;29.172;2023-08-20T02:59:08;99415.66;;;5.55;100.00
73103;BME280;61294;65.988;29.172;2023-08-20T03:01:34;99427.31;;;5.67;100.00
73103;BME280;61294;65.988;29.172;2023-08-20T03:04:00;99431.66;;;5.67;100.00
73103;BME280;61294;65.988;29.172;2023-08-20T03:06:26;99456.59;;;5.86;100.00
73103;BME280;61294;65.988;29.172;2023-08-20T03:08:51;99455.38;;;6.05;100.00
73103;BME280;61294;65.988;29.172;2023-08-20T03:11:17;99449.41;;;6.11;100.00
73103;BME280;61294;65.988;29.172;2023-08-20T03:13:44;99459.22;;;6.19;100.00
73103;BME280;61294;65.988;29.172;2023-08-20T03:16:11;99443.44;;;6.16;100.00
73103;BME280;61294;65.988;29.172;2023-08-20T03:18:37;99431.94;;;6.10;100.00
73103;BME280;61294;65.988;29.172;2023-08-20T03:21:02;99409.66;;;5.92;100.00
73103;BME280;61294;65.988;29.172;2023-08-20T03:23:29;99419.63;;;6.05;100.00
73103;BME280;61294;65.988;29.172;2023-08-20T03:25:57;99451.69;;;6.32;100.00
73103;BME280;61294;65.988;29.172;2023-08-20T03:28:24;99434.13;;;6.26;100.00
73103;BME280;61294;65.988;29.172;2023-08-20T03:30:50;99402.19;;;6.04;100.00
73103;BME280;61294;65.988;29.172;2023-08-20T03:33:16;99408.78;;;5.92;100.00
73103;BME280;61294;65.988;29.172;2023-08-20T03:35:43;99429.06;;;5.99;100.00
73103;BME280;61294;65.988;29.172;2023-08-20T03:38:08;99425.94;;;6.14;100.00
73103;BME280;61294;65.988;29.172;2023-08-20T03:40:34;99434.91;;;6.24;100.00
73103;BME280;61294;65.988;29.172;2023-08-20T03:43:00;99411.41;;;6.25;100.00
73103;BME280;61294;65.988;29.172;2023-08-20T03:45:26;99397.34;;;6.20;100.00
73103;BME280;61294;65.988;29.172;2023-08-20T03:47:52;99424.69;;;6.33;100.00
73103;BME280;61294;65.988;29.172;2023-08-20T03:50:17;99389.97;;;6.05;100.00
73103;BME280;61294;65.988;29.172;2023-08-20T03:52:43;99398.63;;;6.02;100.00
73103;BME280;61294;65.988;29.172;2023-08-20T03:55:09;99419.69;;;6.07;100.00
73103;BME280;61294;65.988;29.172;2023-08-20T03:57:35;99441.84;;;6.21;100.00
73103;BME280;61294;65.988;29.172;2023-08-20T04:00:01;99416.38;;;6.14;100.00
73103;BME280;61294;65.988;29.172;2023-08-20T04:02:26;99409.00;;;6.33;100.00
73103;BME280;61294;65.988;29.172;2023-08-20T04:04:52;99444.41;;;6.55;100.00
73103;BME280;61294;65.988;29.172;2023-08-20T04:07:18;99416.25;;;6.45;100.00
73103;BME280;61294;65.988;29.172;2023-08-20T04:09:44;99408.28;;;6.40;100.00
73103;BME280;61294;65.988;29.172;2023-08-20T04:12:10;99411.88;;;6.45;100.00
73103;BME280;61294;65.988;29.172;2023-08-20T04:14:36;99414.59;;;6.50;100.00
73103;BME280;61294;65.988;29.172;2023-08-20T04:17:01;99414.75;;;6.54;100.00
73103;BME280;61294;65.988;29.172;2023-08-20T04:19:27;99410.63;;;6.66;100.00
73103;BME280;61294;65.988;29.172;2023-08-20T04:21:53;99431.88;;;6.80;100.00
73103;BME280;61294;65.988;29.172;2023-08-20T04:24:19;99433.66;;;6.81;100.00
73103;BME280;61294;65.988;29.172;2023-08-20T04:26:45;99436.28;;;6.81;100.00
73103;BME280;61294;65.988;29.172;2023-08-20T04:29:10;99404.53;;;6.67;100.00
73103;BME280;61294;65.988;29.172;2023-08-20T04:31:36;99403.69;;;6.68;100.00
73103;BME280;61294;65.988;29.172;2023-08-20T04:34:02;99429.38;;;6.83;100.00
73103;BME280;61294;65.988;29.172;2023-08-20T04:36:28;99435.56;;;6.88;100.00
73103;BME280;61294;65.988;29.172;2023-08-20T04:38:54;99391.66;;;6.76;100.00
73103;BME280;61294;65.988;29.172;2023-08-20T04:41:20;99387.34;;;6.78;100.00
73103;BME280;61294;65.988;29.172;2023-08-20T04:43:45;99416.59;;;6.98;100.00
73103;BME280;61294;65.988;29.172;2023-08-20T04:46:11;99423.75;;;7.05;100.00
73103;BME280;61294;65.988;29.172;2023-08-20T04:48:37;99422.13;;;7.12;100.00
73103;BME280;61294;65.988;29.172;2023-08-20T04:51:02;99426.63;;;7.18;100.00
73103;BME280;61294;65.988;29.172;2023-08-20T04:53:29;99419.69;;;7.20;100.00
73103;BME280;61294;65.988;29.172;2023-08-20T04:55:57;99388.03;;;7.11;100.00
73103;BME280;61294;65.988;29.172;2023-08-20T04:58:23;99394.25;;;7.14;100.00
73103;BME280;61294;65.988;29.172;2023-08-20T05:00:49;99413.84;;;7.33;100.00
73103;BME280;61294;65.988;29.172;2023-08-20T05:03:15;99378.56;;;7.16;100.00
73103;BME280;61294;65.988;29.172;2023-08-20T05:05:41;99377.06;;;7.29;100.00
73103;BME280;61294;65.988;29.172;2023-08-20T05:08:06;99382.38;;;7.33;100.00
73103;BME280;61294;65.988;29.172;2023-08-20T05:10:36;99412.50;;;7.54;100.00
73103;BME280;61294;65.988;29.172;2023-08-20T05:13:01;99401.06;;;7.50;100.00
73103;BME280;61294;65.988;29.172;2023-08-20T05:15:27;99411.81;;;7.63;100.00
73103;BME280;61294;65.988;29.172;2023-08-20T05:17:53;99379.28;;;7.53;100.00
73103;BME280;61294;65.988;29.172;2023-08-20T05:20:19;99404.94;;;7.69;100.00
73103;BME280;61294;65.988;29.172;2023-08-20T05:22:44;99378.53;;;7.60;100.00
73103;BME280;61294;65.988;29.172;2023-08-20T05:25:10;99365.50;;;7.63;100.00
73103;BME280;61294;65.988;29.172;2023-08-20T05:27:36;99360.28;;;7.65;100.00
73103;BME280;61294;65.988;29.172;2023-08-20T05:30:02;99394.75;;;7.86;100.00
73103;BME280;61294;65.988;29.172;2023-08-20T05:32:28;99401.00;;;7.93;100.00
73103;BME280;61294;65.988;29.172;2023-08-20T05:34:54;99395.84;;;7.99;100.00
73103;BME280;61294;65.988;29.172;2023-08-20T05:37:20;99379.34;;;8.06;100.00
73103;BME280;61294;65.988;29.172;2023-08-20T05:39:46;99366.94;;;7.96;100.00
73103;BME280;61294;65.988;29.172;2023-08-20T05:42:12;99393.28;;;8.02;100.00
73103;BME280;61294;65.988;29.172;2023-08-20T05:44:37;99386.25;;;8.00;100.00
73103;BME280;61294;65.988;29.172;2023-08-20T05:47:03;99387.22;;;8.05;100.00
73103;BME280;61294;65.988;29.172;2023-08-20T05:49:31;99392.59;;;8.11;100.00
73103;BME280;61294;65.988;29.172;2023-08-20T05:51:56;99386.66;;;8.23;100.00
73103;BME280;61294;65.988;29.172;2023-08-20T05:54:22;99353.91;;;8.01;100.00
73103;BME280;61294;65.988;29.172;2023-08-20T05:56:48;99363.63;;;8.08;100.00
73103;BME280;61294;65.988;29.172;2023-08-20T05:59:14;99385.13;;;8.37;100.00
73103;BME280;61294;65.988;29.172;2023-08-20T06:01:40;99347.38;;;8.30;100.00
73103;BME280;61294;65.988;29.172;2023-08-20T06:04:05;99355.41;;;8.38;100.00
73103;BME280;61294;65.988;29.172;2023-08-20T06:06:31;99346.63;;;8.38;100.00
73103;BME280;61294;65.988;29.172;2023-08-20T06:08:57;99367.94;;;8.56;100.00
73103;BME280;61294;65.988;29.172;2023-08-20T06:11:22;99346.88;;;8.52;100.00
73103;BME280;61294;65.988;29.172;2023-08-20T06:13:48;99360.19;;;8.64;100.00
73103;BME280;61294;65.988;29.172;2023-08-20T06:16:14;99359.44;;;8.73;100.00
73103;BME280;61294;65.988;29.172;2023-08-20T06:18:40;99369.13;;;8.77;100.00
73103;BME280;61294;65.988;29.172;2023-08-20T06:21:05;99358.66;;;8.80;100.00
73103;BME280;61294;65.988;29.172;2023-08-20T06:23:31;99345.69;;;8.91;100.00
73103;BME280;61294;65.988;29.172;2023-08-20T06:25:57;99342.19;;;8.95;100.00
73103;BME280;61294;65.988;29.172;2023-08-20T06:28:23;99355.38;;;8.96;99.71
73103;BME280;61294;65.988;29.172;2023-08-20T06:30:49;99357.38;;;9.18;96.80
73103;BME280;61294;65.988;29.172;2023-08-20T06:33:15;99318.75;;;9.12;99.35
73103;BME280;61294;65.988;29.172;2023-08-20T06:35:40;99342.50;;;9.18;97.88
73103;BME280;61294;65.988;29.172;2023-08-20T06:38:07;99341.13;;;9.51;94.85
73103;BME280;61294;65.988;29.172;2023-08-20T06:40:33;99323.41;;;9.35;96.34
73103;BME280;61294;65.988;29.172;2023-08-20T06:42:59;99350.63;;;9.40;95.62
73103;BME280;61294;65.988;29.172;2023-08-20T06:45:25;99341.91;;;9.41;91.06
73103;BME280;61294;65.988;29.172;2023-08-20T06:47:51;99345.38;;;9.38;93.56
73103;BME280;61294;65.988;29.172;2023-08-20T06:50:17;99340.13;;;9.40;90.48
73103;BME280;61294;65.988;29.172;2023-08-20T06:52:42;99333.09;;;9.39;91.28
73103;BME280;61294;65.988;29.172;2023-08-20T06:55:08;99318.16;;;9.38;91.16
73103;BME280;61294;65.988;29.172;2023-08-20T06:57:34;99310.22;;;9.30;92.81
73103;BME280;61294;65.988;29.172;2023-08-20T07:00:00;99319.00;;;9.32;89.48
73103;BME280;61294;65.988;29.172;2023-08-20T07:02:25;99311.13;;;9.33;88.87
73103;BME280;61294;65.988;29.172;2023-08-20T07:04:51;99332.47;;;9.63;87.57
73103;BME280;61294;65.988;29.172;2023-08-20T07:07:17;99304.28;;;9.48;87.37
73103;BME280;61294;65.988;29.172;2023-08-20T07:09:43;99334.22;;;9.61;85.60
73103;BME280;61294;65.988;29.172;2023-08-20T07:12:09;99323.84;;;9.76;83.95
73103;BME280;61294;65.988;29.172;2023-08-20T07:14:35;99323.13;;;9.99;83.07
73103;BME280;61294;65.988;29.172;2023-08-20T07:17:00;99323.09;;;9.91;84.84
73103;BME280;61294;65.988;29.172;2023-08-20T07:19:28;99315.91;;;9.75;84.38
73103;BME280;61294;65.988;29.172;2023-08-20T07:21:54;99330.97;;;9.88;84.04
73103;BME280;61294;65.988;29.172;2023-08-20T07:24:20;99311.59;;;9.83;85.73
73103;BME280;61294;65.988;29.172;2023-08-20T07:26:51;99328.38;;;9.97;84.35
73103;BME280;61294;65.988;29.172;2023-08-20T07:29:17;99325.72;;;9.91;82.77
73103;BME280;61294;65.988;29.172;2023-08-20T07:31:43;99295.00;;;9.90;85.65
73103;BME280;61294;65.988;29.172;2023-08-20T07:34:09;99319.75;;;10.11;84.61
73103;BME280;61294;65.988;29.172;2023-08-20T07:36:34;99293.25;;;9.88;86.52
73103;BME280;61294;65.988;29.172;2023-08-20T07:39:01;99327.66;;;10.14;81.68
73103;BME280;61294;65.988;29.172;2023-08-20T07:41:27;99332.06;;;10.15;84.41
73103;BME280;61294;65.988;29.172;2023-08-20T07:43:52;99324.22;;;10.23;82.73
73103;BME280;61294;65.988;29.172;2023-08-20T07:46:19;99319.91;;;10.31;81.14
73103;BME280;61294;65.988;29.172;2023-08-20T07:48:45;99322.66;;;10.45;80.52
73103;BME280;61294;65.988;29.172;2023-08-20T07:51:11;99323.56;;;10.50;82.15
73103;BME280;61294;65.988;29.172;2023-08-20T07:53:37;99321.88;;;10.64;84.64
73103;BME280;61294;65.988;29.172;2023-08-20T07:56:04;99324.50;;;10.64;84.50
73103;BME280;61294;65.988;29.172;2023-08-20T07:58:29;99321.03;;;10.71;82.81
73103;BME280;61294;65.988;29.172;2023-08-20T08:00:56;99314.03;;;10.74;83.55
73103;BME280;61294;65.988;29.172;2023-08-20T08:03:22;99293.84;;;10.77;84.87
73103;BME280;61294;65.988;29.172;2023-08-20T08:05:48;99312.41;;;10.99;85.72
73103;BME280;61294;65.988;29.172;2023-08-20T08:08:18;99301.88;;;11.08;81.49
73103;BME280;61294;65.988;29.172;2023-08-20T08:10:45;99305.38;;;11.05;78.72
73103;BME280;61294;65.988;29.172;2023-08-20T08:13:17;99303.69;;;11.17;79.44
73103;BME280;61294;65.988;29.172;2023-08-20T08:15:43;99303.72;;;11.23;80.97
73103;BME280;61294;65.988;29.172;2023-08-20T08:18:09;99278.22;;;11.20;79.80
73103;BME280;61294;65.988;29.172;2023-08-20T08:20:35;99301.13;;;11.52;79.32
73103;BME280;61294;65.988;29.172;2023-08-20T08:23:01;99301.16;;;11.60;79.08
73103;BME280;61294;65.988;29.172;2023-08-20T08:25:27;99298.53;;;11.63;74.95
73103;BME280;61294;65.988;29.172;2023-08-20T08:27:53;99301.19;;;11.83;77.05
73103;BME280;61294;65.988;29.172;2023-08-20T08:30:18;99302.97;;;12.12;77.68
73103;BME280;61294;65.988;29.172;2023-08-20T08:32:44;99282.72;;;12.20;74.81
73103;BME280;61294;65.988;29.172;2023-08-20T08:35:10;99287.97;;;12.28;77.06
73103;BME280;61294;65.988;29.172;2023-08-20T08:37:36;99287.97;;;12.42;72.64
73103;BME280;61294;65.988;29.172;2023-08-20T08:40:03;99251.91;;;12.30;73.78
73103;BME280;61294;65.988;29.172;2023-08-20T08:42:33;99247.44;;;12.45;72.13
73103;BME280;61294;65.988;29.172;2023-08-20T08:45:02;99250.88;;;12.76;74.90
73103;BME280;61294;65.988;29.172;2023-08-20T08:47:29;99287.72;;;13.16;75.57
73103;BME280;61294;65.988;29.172;2023-08-20T08:49:56;99260.38;;;13.16;68.67
73103;BME280;61294;65.988;29.172;2023-08-20T08:52:25;99287.66;;;13.22;67.75
73103;BME280;61294;65.988;29.172;2023-08-20T08:54:52;99292.00;;;13.42;67.68
73103;BME280;61294;65.988;29.172;2023-08-20T08:57:18;99271.50;;;13.73;68.54
73103;BME280;61294;65.988;29.172;2023-08-20T08:59:44;99256.19;;;14.11;68.58
73103;BME280;61294;65.988;29.172;2023-08-20T09:02:12;99268.13;;;14.52;69.68
73103;BME280;61294;65.988;29.172;2023-08-20T09:04:41;99272.00;;;15.04;69.62
73103;BME280;61294;65.988;29.172;2023-08-20T09:07:16;99271.75;;;15.23;68.18
73103;BME280;61294;65.988;29.172;2023-08-20T09:09:43;99272.81;;;15.09;63.12
73103;BME280;61294;65.988;29.172;2023-08-20T09:12:13;99270.50;;;15.48;59.15
73103;BME280;61294;65.988;29.172;2023-08-20T09:14:40;99250.25;;;15.99;62.35
73103;BME280;61294;65.988;29.172;2023-08-20T09:17:09;99247.31;;;16.14;57.42
73103;BME280;61294;65.988;29.172;2023-08-20T09:19:36;99266.53;;;17.21;59.75
73103;BME280;61294;65.988;29.172;2023-08-20T09:22:05;99255.34;;;18.52;55.71
73103;BME280;61294;65.988;29.172;2023-08-20T09:24:39;99230.75;;;22.87;47.14
73103;BME280;61294;65.988;29.172;2023-08-20T09:27:08;99255.41;;;29.16;36.66
73103;BME280;61294;65.988;29.172;2023-08-20T09:29:54;99233.47;;;34.36;26.54
73103;BME280;61294;65.988;29.172;2023-08-20T09:32:22;99227.69;;;33.80;25.27
73103;BME280;61294;65.988;29.172;2023-08-20T09:34:48;99244.72;;;36.73;23.51
73103;BME280;61294;65.988;29.172;2023-08-20T09:37:17;99225.03;;;39.45;20.04
73103;BME280;61294;65.988;29.172;2023-08-20T09:39:43;99204.94;;;38.88;19.63
73103;BME280;61294;65.988;29.172;2023-08-20T09:42:10;99227.78;;;39.45;19.37
73103;BME280;61294;65.988;29.172;2023-08-20T09:44:38;99215.19;;;39.03;17.90
73103;BME280;61294;65.988;29.172;2023-08-20T09:47:07;99208.56;;;38.56;18.31
73103;BME280;61294;65.988;29.172;2023-08-20T09:49:41;99217.53;;;39.93;18.51
73103;BME280;61294;65.988;29.172;2023-08-20T09:52:09;99201.50;;;41.99;17.17
73103;BME280;61294;65.988;29.172;2023-08-20T09:54:55;99215.88;;;42.59;16.05
73103;BME280;61294;65.988;29.172;2023-08-20T09:57:36;99213.44;;;42.21;16.36
73103;BME280;61294;65.988;29.172;2023-08-20T10:00:04;99211.88;;;42.97;15.01
73103;BME280;61294;65.988;29.172;2023-08-20T10:02:37;99200.94;;;43.66;14.54
73103;BME280;61294;65.988;29.172;2023-08-20T10:05:07;99206.47;;;43.66;14.95
73103;BME280;61294;65.988;29.172;2023-08-20T10:07:34;99198.97;;;42.48;15.60
73103;BME280;61294;65.988;29.172;2023-08-20T10:10:03;99198.09;;;44.74;13.95
73103;BME280;61294;65.988;29.172;2023-08-20T10:12:30;99202.44;;;43.20;14.22
73103;BME280;61294;65.988;29.172;2023-08-20T10:14:57;99190.19;;;42.44;15.45
73103;BME280;61294;65.988;29.172;2023-08-20T10:17:23;99192.66;;;43.24;13.33
73103;BME280;61294;65.988;29.172;2023-08-20T10:19:52;99167.97;;;44.04;15.00
73103;BME280;61294;65.988;29.172;2023-08-20T10:22:19;99191.22;;;45.62;14.60
73103;BME280;61294;65.988;29.172;2023-08-20T10:24:51;99186.66;;;40.89;14.45
73103;BME280;61294;65.988;29.172;2023-08-20T10:27:33;99177.91;;;43.17;13.14
73103;BME280;61294;65.988;29.172;2023-08-20T10:29:59;99171.16;;;43.94;14.07
73103;BME280;61294;65.988;29.172;2023-08-20T10:32:54;99170.22;;;45.08;13.12
73103;BME280;61294;65.988;29.172;2023-08-20T10:35:26;99175.47;;;43.42;13.94
73103;BME280;61294;65.988;29.172;2023-08-20T10:40:52;99172.13;;;43.53;13.73
73103;BME280;61294;65.988;29.172;2023-08-20T10:46:27;99152.72;;;43.67;13.63
73103;BME280;61294;65.988;29.172;2023-08-20T10:49:02;99156.66;;;44.33;13.63
73103;BME280;61294;65.988;29.172;2023-08-20T10:51:35;99151.25;;;44.85;12.67
73103;BME280;61294;65.988;29.172;2023-08-20T10:59:28;99152.53;;;45.86;12.56
73103;BME280;61294;65.988;29.172;2023-08-20T11:01:59;99147.72;;;46.50;12.08
73103;BME280;61294;65.988;29.172;2023-08-20T11:04:30;99156.00;;;45.36;11.99
73103;BME280;61294;65.988;29.172;2023-08-20T11:07:00;99151.28;;;44.11;12.83
73103;BME280;61294;65.988;29.172;2023-08-20T11:09:30;99141.28;;;44.43;12.43
73103;BME280;61294;65.988;29.172;2023-08-20T11:11:57;99136.75;;;43.69;11.91
73103;BME280;61294;65.988;29.172;2023-08-20T11:14:23;99141.25;;;43.96;12.93
73103;BME280;61294;65.988;29.172;2023-08-20T11:16:50;99130.97;;;44.64;12.23
73103;BME280;61294;65.988;29.172;2023-08-20T11:19:21;99143.41;;;44.01;12.92
73103;BME280;61294;65.988;29.172;2023-08-20T11:21:48;99137.59;;;44.83;12.42
73103;BME280;61294;65.988;29.172;2023-08-20T11:24:14;99133.63;;;46.20;12.39
73103;BME280;61294;65.988;29.172;2023-08-20T11:26:42;99134.47;;;45.18;12.34
73103;BME280;61294;65.988;29.172;2023-08-20T11:29:10;99128.47;;;44.42;12.63
73103;BME280;61294;65.988;29.172;2023-08-20T11:31:38;99126.94;;;44.20;12.29
73103;BME280;61294;65.988;29.172;2023-08-20T11:34:04;99133.28;;;45.39;10.89
73103;BME280;61294;65.988;29.172;2023-08-20T11:36:31;99124.75;;;44.89;12.53
73103;BME280;61294;65.988;29.172;2023-08-20T11:38:57;99124.38;;;45.24;11.42
73103;BME280;61294;65.988;29.172;2023-08-20T11:41:24;99112.75;;;44.88;11.56
73103;BME280;61294;65.988;29.172;2023-08-20T11:43:52;99090.69;;;43.88;12.86
73103;BME280;61294;65.988;29.172;2023-08-20T11:46:19;99107.97;;;44.23;12.33
73103;BME280;61294;65.988;29.172;2023-08-20T11:49:26;99102.28;;;45.74;12.47
73103;BME280;61294;65.988;29.172;2023-08-20T11:51:52;99094.34;;;47.09;11.56
73103;BME280;61294;65.988;29.172;2023-08-20T11:54:18;99086.13;;;46.96;10.78
73103;BME280;61294;65.988;29.172;2023-08-20T11:56:48;99087.97;;;44.87;11.07
73103;BME280;61294;65.988;29.172;2023-08-20T11:59:15;99092.38;;;45.53;11.87
73103;BME280;61294;65.988;29.172;2023-08-20T12:01:42;99086.63;;;45.03;12.10
73103;BME280;61294;65.988;29.172;2023-08-20T12:04:10;99075.31;;;44.97;11.79
73103;BME280;61294;65.988;29.172;2023-08-20T12:06:38;99087.72;;;45.47;11.06
73103;BME280;61294;65.988;29.172;2023-08-20T12:09:21;99087.84;;;45.20;11.73
73103;BME280;61294;65.988;29.172;2023-08-20T12:11:51;99070.84;;;37.58;15.72
73103;BME280;61294;65.988;29.172;2023-08-20T12:14:21;99071.47;;;44.00;12.42
73103;BME280;61294;65.988;29.172;2023-08-20T12:16:47;99079.78;;;45.12;12.35
73103;BME280;61294;65.988;29.172;2023-08-20T12:19:16;99075.41;;;44.84;12.00
73103;BME280;61294;65.988;29.172;2023-08-20T12:21:42;99071.63;;;44.38;11.97
73103;BME280;61294;65.988;29.172;2023-08-20T12:24:11;99063.16;;;43.86;12.21
73103;BME280;61294;65.988;29.172;2023-08-20T12:26:38;99055.84;;;45.43;11.97
73103;BME280;61294;65.988;29.172;2023-08-20T12:29:04;99050.09;;;45.44;11.83
73103;BME280;61294;65.988;29.172;2023-08-20T12:31:34;99055.56;;;43.26;12.59
73103;BME280;61294;65.988;29.172;2023-08-20T12:34:01;99061.09;;;44.74;12.03
73103;BME280;61294;65.988;29.172;2023-08-20T12:36:28;99056.91;;;44.38;12.26
73103;BME280;61294;65.988;29.172;2023-08-20T12:38:54;99057.59;;;44.26;12.18
73103;BME280;61294;65.988;29.172;2023-08-20T12:41:20;99050.59;;;43.08;12.13
73103;BME280;61294;65.988;29.172;2023-08-20T12:43:46;99053.94;;;43.52;12.67
73103;BME280;61294;65.988;29.172;2023-08-20T12:46:12;99052.25;;;43.65;12.08
73103;BME280;61294;65.988;29.172;2023-08-20T12:48:39;99040.59;;;44.68;11.57
73103;BME280;61294;65.988;29.172;2023-08-20T12:51:06;99048.28;;;45.57;11.83
73103;BME280;61294;65.988;29.172;2023-08-20T12:53:33;99042.41;;;44.29;11.52
73103;BME280;61294;65.988;29.172;2023-08-20T12:55:58;99033.91;;;43.90;12.06
73103;BME280;61294;65.988;29.172;2023-08-20T12:58:25;99040.88;;;44.46;11.02
73103;BME280;61294;65.988;29.172;2023-08-20T13:00:51;99036.69;;;43.90;11.99
73103;BME280;61294;65.988;29.172;2023-08-20T13:03:18;99039.19;;;43.58;11.68
73103;BME280;61294;65.988;29.172;2023-08-20T13:05:44;99036.19;;;44.99;12.04
73103;BME280;61294;65.988;29.172;2023-08-20T13:08:10;99035.81;;;45.34;11.45
73103;BME280;61294;65.988;29.172;2023-08-20T13:10:41;99031.03;;;44.44;12.23
73103;BME280;61294;65.988;29.172;2023-08-20T13:13:10;99025.41;;;44.64;12.36